sensor_id;sensor_type;location;lat;lon;timestamp;pressure;altitude;pressure_sealevel;temperature;humidity
43745;BME280;29359;53.048;8.732;2023-03-14T00:18:27;98916.91;;;9.54;96.53
43745;BME280;29359;53.048;8.732;2023-03-14T00:20:29;98915.28;;;9.51;97.30
43745;BME280;29359;53.048;8.732;2023-03-14T00:22:31;98916.91;;;9.54;96.65
43745;BME280;29359;53.048;8.732;2023-03-14T00:24:33;98910.63;;;9.56;96.35
43745;BME280;29359;53.048;8.732;2023-03-14T00:26:34;98918.47;;;9.58;96.46
43745;BME280;29359;53.048;8.732;2023-03-14T00:28:36;98920.16;;;9.59;96.32
43745;BME280;29359;53.048;8.732;2023-03-14T00:30:38;98913.09;;;9.59;96.97
43745;BME280;29359;53.048;8.732;2023-03-14T00:32:39;98912.94;;;9.62;96.29
43745;BME280;29359;53.048;8.732;2023-03-14T00:34:41;98916.41;;;9.63;95.82
43745;BME280;29359;53.048;8.732;2023-03-14T00:36:42;98926.72;;;9.67;96.72
43745;BME280;29359;53.048;8.732;2023-03-14T00:38:47;98928.22;;;9.71;95.75
43745;BME280;29359;53.048;8.732;2023-03-14T00:40:50;98935.03;;;9.75;96.24
43745;BME280;29359;53.048;8.732;2023-03-14T00:42:52;98933.94;;;9.80;95.84
43745;BME280;29359;53.048;8.732;2023-03-14T00:44:53;98937.25;;;9.83;95.58
43745;BME280;29359;53.048;8.732;2023-03-14T00:46:56;98945.16;;;9.83;95.29
43745;BME280;29359;53.048;8.732;2023-03-14T00:48:58;98950.25;;;9.86;95.54
43745;BME280;29359;53.048;8.732;2023-03-14T00:51:01;98938.84;;;9.86;94.89
43745;BME280;29359;53.048;8.732;2023-03-14T00:53:03;98912.41;;;9.87;95.24
43745;BME280;29359;53.048;8.732;2023-03-14T00:55:06;98908.84;;;9.88;95.46
43745;BME280;29359;53.048;8.732;2023-03-14T00:57:09;98916.75;;;9.88;95.24
43745;BME280;29359;53.048;8.732;2023-03-14T00:59:12;98925.50;;;9.89;95.84
43745;BME280;29359;53.048;8.732;2023-03-14T01:01:17;98916.66;;;9.90;95.96
43745;BME280;29359;53.048;8.732;2023-03-14T01:03:20;98905.19;;;9.91;96.03
43745;BME280;29359;53.048;8.732;2023-03-14T01:05:22;98897.38;;;9.89;95.53
43745;BME280;29359;53.048;8.732;2023-03-14T01:07:25;98894.81;;;9.88;95.91
43745;BME280;29359;53.048;8.732;2023-03-14T01:09:27;98893.13;;;9.87;95.74
43745;BME280;29359;53.048;8.732;2023-03-14T01:11:32;98884.28;;;9.88;96.63
43745;BME280;29359;53.048;8.732;2023-03-14T01:13:35;98876.19;;;9.91;96.48
43745;BME280;29359;53.048;8.732;2023-03-14T01:15:37;98874.41;;;9.91;96.89
43745;BME280;29359;53.048;8.732;2023-03-14T01:17:39;98864.72;;;9.92;96.93
43745;BME280;29359;53.048;8.732;2023-03-14T01:19:40;98856.72;;;9.93;97.10
43745;BME280;29359;53.048;8.732;2023-03-14T01:21:42;98844.47;;;9.92;97.44
43745;BME280;29359;53.048;8.732;2023-03-14T01:23:45;98830.34;;;9.93;97.29
43745;BME280;29359;53.048;8.732;2023-03-14T01:25:47;98825.94;;;9.94;97.61
43745;BME280;29359;53.048;8.732;2023-03-14T01:27:49;98836.47;;;9.94;97.93
43745;BME280;29359;53.048;8.732;2023-03-14T01:29:50;98839.88;;;9.96;98.26
43745;BME280;29359;53.048;8.732;2023-03-14T01:31:54;98843.31;;;9.98;98.22
43745;BME280;29359;53.048;8.732;2023-03-14T01:33:57;98832.66;;;9.99;97.82
43745;BME280;29359;53.048;8.732;2023-03-14T01:35:59;98838.03;;;9.98;98.10
43745;BME280;29359;53.048;8.732;2023-03-14T01:38:05;98836.25;;;9.98;97.72
43745;BME280;29359;53.048;8.732;2023-03-14T01:40:10;98824.84;;;9.98;97.83
43745;BME280;29359;53.048;8.732;2023-03-14T01:42:13;98807.25;;;9.98;97.96
43745;BME280;29359;53.048;8.732;2023-03-14T01:44:16;98819.31;;;10.02;98.00
43745;BME280;29359;53.048;8.732;2023-03-14T01:48:47;98814.34;;;10.12;98.27
43745;BME280;29359;53.048;8.732;2023-03-14T01:50:55;98810.78;;;10.13;97.96
43745;BME280;29359;53.048;8.732;2023-03-14T01:52:57;98801.16;;;10.12;97.43
43745;BME280;29359;53.048;8.732;2023-03-14T01:55:03;98786.28;;;10.11;97.36
43745;BME280;29359;53.048;8.732;2023-03-14T01:59:13;98774.41;;;10.04;96.76
43745;BME280;29359;53.048;8.732;2023-03-14T02:01:18;98783.25;;;10.03;97.04
43745;BME280;29359;53.048;8.732;2023-03-14T02:03:23;98794.75;;;10.02;97.40
43745;BME280;29359;53.048;8.732;2023-03-14T02:05:28;98794.75;;;10.02;97.31
43745;BME280;29359;53.048;8.732;2023-03-14T02:07:49;98802.72;;;10.00;96.85
43745;BME280;29359;53.048;8.732;2023-03-14T02:09:51;98807.81;;;10.03;97.08
43745;BME280;29359;53.048;8.732;2023-03-14T02:11:54;98812.16;;;10.04;97.18
43745;BME280;29359;53.048;8.732;2023-03-14T02:13:57;98812.16;;;10.04;96.88
43745;BME280;29359;53.048;8.732;2023-03-14T02:16:00;98807.91;;;10.02;96.17
43745;BME280;29359;53.048;8.732;2023-03-14T02:18:03;98813.00;;;10.05;96.69
43745;BME280;29359;53.048;8.732;2023-03-14T02:20:42;98810.94;;;10.10;96.81
43745;BME280;29359;53.048;8.732;2023-03-14T02:22:46;98815.28;;;10.11;96.61
43745;BME280;29359;53.048;8.732;2023-03-14T02:27:22;98829.91;;;10.17;96.44
43745;BME280;29359;53.048;8.732;2023-03-14T02:29:24;98828.88;;;10.19;96.54
43745;BME280;29359;53.048;8.732;2023-03-14T02:31:26;98829.47;;;10.24;95.92
43745;BME280;29359;53.048;8.732;2023-03-14T02:33:28;98823.00;;;10.30;95.53
43745;BME280;29359;53.048;8.732;2023-03-14T02:35:35;98829.97;;;10.31;95.10
43745;BME280;29359;53.048;8.732;2023-03-14T02:37:41;98823.56;;;10.35;94.79
43745;BME280;29359;53.048;8.732;2023-03-14T02:39:45;98821.44;;;10.42;94.65
43745;BME280;29359;53.048;8.732;2023-03-14T02:41:46;98816.81;;;10.45;94.23
43745;BME280;29359;53.048;8.732;2023-03-14T02:43:50;98825.41;;;10.49;93.71
43745;BME280;29359;53.048;8.732;2023-03-14T02:45:52;98819.19;;;10.50;93.89
43745;BME280;29359;53.048;8.732;2023-03-14T02:48:00;98819.94;;;10.52;93.82
43745;BME280;29359;53.048;8.732;2023-03-14T02:50:09;98819.00;;;10.53;93.15
43745;BME280;29359;53.048;8.732;2023-03-14T02:52:11;98809.22;;;10.55;93.67
43745;BME280;29359;53.048;8.732;2023-03-14T02:54:14;98802.97;;;10.56;93.26
43745;BME280;29359;53.048;8.732;2023-03-14T02:56:16;98808.06;;;10.59;92.53
43745;BME280;29359;53.048;8.732;2023-03-14T02:58:19;98805.06;;;10.65;92.21
43745;BME280;29359;53.048;8.732;2023-03-14T03:00:21;98809.41;;;10.66;91.66
43745;BME280;29359;53.048;8.732;2023-03-14T03:02:22;98810.06;;;10.69;91.72
43745;BME280;29359;53.048;8.732;2023-03-14T03:04:24;98812.41;;;10.74;91.19
43745;BME280;29359;53.048;8.732;2023-03-14T03:06:25;98803.47;;;10.77;90.46
43745;BME280;29359;53.048;8.732;2023-03-14T03:08:28;98806.94;;;10.77;90.22
43745;BME280;29359;53.048;8.732;2023-03-14T03:10:30;98802.53;;;10.78;90.22
43745;BME280;29359;53.048;8.732;2023-03-14T03:12:31;98797.91;;;10.81;90.22
43745;BME280;29359;53.048;8.732;2023-03-14T03:14:33;98793.31;;;10.85;89.65
43745;BME280;29359;53.048;8.732;2023-03-14T03:16:34;98796.00;;;10.83;89.39
43745;BME280;29359;53.048;8.732;2023-03-14T03:18:36;98796.00;;;10.83;89.55
43745;BME280;29359;53.048;8.732;2023-03-14T03:20:37;98788.09;;;10.83;89.53
43745;BME280;29359;53.048;8.732;2023-03-14T03:22:39;98794.31;;;10.82;89.22
43745;BME280;29359;53.048;8.732;2023-03-14T03:24:41;98783.75;;;10.82;89.22
43745;BME280;29359;53.048;8.732;2023-03-14T03:26:42;98788.94;;;10.84;88.83
43745;BME280;29359;53.048;8.732;2023-03-14T03:28:44;98793.03;;;10.89;88.56
43745;BME280;29359;53.048;8.732;2023-03-14T03:30:45;98779.72;;;10.91;88.56
43745;BME280;29359;53.048;8.732;2023-03-14T03:32:47;98781.63;;;10.89;88.60
43745;BME280;29359;53.048;8.732;2023-03-14T03:34:49;98787.25;;;10.83;89.69
43745;BME280;29359;53.048;8.732;2023-03-14T03:36:50;98782.34;;;10.77;90.53
43745;BME280;29359;53.048;8.732;2023-03-14T03:38:51;98785.28;;;10.72;91.03
43745;BME280;29359;53.048;8.732;2023-03-14T03:40:53;98783.84;;;10.66;91.71
43745;BME280;29359;53.048;8.732;2023-03-14T03:42:54;98774.34;;;10.64;92.23
43745;BME280;29359;53.048;8.732;2023-03-14T03:44:56;98784.34;;;10.59;92.82
43745;BME280;29359;53.048;8.732;2023-03-14T03:46:57;98775.75;;;10.55;93.12
43745;BME280;29359;53.048;8.732;2023-03-14T03:48:59;98781.31;;;10.51;93.92
43745;BME280;29359;53.048;8.732;2023-03-14T03:51:01;98777.34;;;10.44;93.79
43745;BME280;29359;53.048;8.732;2023-03-14T03:53:03;98779.22;;;10.42;94.49
43745;BME280;29359;53.048;8.732;2023-03-14T03:55:04;98773.25;;;10.38;94.54
43745;BME280;29359;53.048;8.732;2023-03-14T03:57:06;98772.41;;;10.37;94.78
43745;BME280;29359;53.048;8.732;2023-03-14T03:59:08;98768.16;;;10.35;94.91
43745;BME280;29359;53.048;8.732;2023-03-14T04:01:10;98769.13;;;10.34;94.93
43745;BME280;29359;53.048;8.732;2023-03-14T04:03:12;98771.09;;;10.30;94.60
43745;BME280;29359;53.048;8.732;2023-03-14T04:05:13;98771.94;;;10.31;94.62
43745;BME280;29359;53.048;8.732;2023-03-14T04:07:15;98775.16;;;10.36;93.70
43745;BME280;29359;53.048;8.732;2023-03-14T04:09:16;98769.78;;;10.37;93.40
43745;BME280;29359;53.048;8.732;2023-03-14T04:11:18;98764.50;;;10.37;92.95
43745;BME280;29359;53.048;8.732;2023-03-14T04:13:19;98765.25;;;10.39;92.48
43745;BME280;29359;53.048;8.732;2023-03-14T04:15:21;98763.47;;;10.40;92.11
43745;BME280;29359;53.048;8.732;2023-03-14T04:17:22;98772.06;;;10.44;91.33
43745;BME280;29359;53.048;8.732;2023-03-14T04:19:24;98772.91;;;10.44;91.03
43745;BME280;29359;53.048;8.732;2023-03-14T04:21:25;98766.63;;;10.47;91.12
43745;BME280;29359;53.048;8.732;2023-03-14T04:23:27;98769.25;;;10.47;90.90
43745;BME280;29359;53.048;8.732;2023-03-14T04:25:28;98765.84;;;10.45;90.83
43745;BME280;29359;53.048;8.732;2023-03-14T04:27:30;98763.41;;;10.42;90.63
43745;BME280;29359;53.048;8.732;2023-03-14T04:29:31;98758.38;;;10.37;91.13
43745;BME280;29359;53.048;8.732;2023-03-14T04:31:33;98763.09;;;10.32;91.27
43745;BME280;29359;53.048;8.732;2023-03-14T04:33:34;98763.94;;;10.32;91.58
43745;BME280;29359;53.048;8.732;2023-03-14T04:35:37;98759.59;;;10.31;91.62
43745;BME280;29359;53.048;8.732;2023-03-14T04:37:38;98759.50;;;10.33;91.73
43745;BME280;29359;53.048;8.732;2023-03-14T04:39:41;98757.72;;;10.33;92.00
43745;BME280;29359;53.048;8.732;2023-03-14T04:41:44;98750.84;;;10.31;92.02
43745;BME280;29359;53.048;8.732;2023-03-14T04:43:45;98748.28;;;10.29;92.00
43745;BME280;29359;53.048;8.732;2023-03-14T04:45:47;98746.69;;;10.27;92.19
43745;BME280;29359;53.048;8.732;2023-03-14T04:47:48;98752.16;;;10.24;92.32
43745;BME280;29359;53.048;8.732;2023-03-14T04:49:50;98750.44;;;10.23;92.41
43745;BME280;29359;53.048;8.732;2023-03-14T04:51:51;98761.94;;;10.22;92.83
43745;BME280;29359;53.048;8.732;2023-03-14T04:53:53;98744.25;;;10.24;91.90
43745;BME280;29359;53.048;8.732;2023-03-14T04:55:55;98762.78;;;10.22;92.39
43745;BME280;29359;53.048;8.732;2023-03-14T04:57:57;98758.50;;;10.20;92.46
43745;BME280;29359;53.048;8.732;2023-03-14T04:59:59;98757.66;;;10.19;92.42
43745;BME280;29359;53.048;8.732;2023-03-14T05:02:00;98776.22;;;10.18;92.17
43745;BME280;29359;53.048;8.732;2023-03-14T05:04:02;98776.41;;;10.15;92.51
43745;BME280;29359;53.048;8.732;2023-03-14T05:06:04;98773.09;;;10.11;93.06
43745;BME280;29359;53.048;8.732;2023-03-14T05:08:05;98776.94;;;10.05;93.01
43745;BME280;29359;53.048;8.732;2023-03-14T05:10:08;98768.47;;;10.00;93.15
43745;BME280;29359;53.048;8.732;2023-03-14T05:12:09;98771.28;;;9.97;92.89
43745;BME280;29359;53.048;8.732;2023-03-14T05:14:11;98767.09;;;9.93;92.35
43745;BME280;29359;53.048;8.732;2023-03-14T05:16:12;98769.56;;;9.96;91.01
43745;BME280;29359;53.048;8.732;2023-03-14T05:18:14;98772.13;;;9.98;90.56
43745;BME280;29359;53.048;8.732;2023-03-14T05:20:15;98769.50;;;9.98;89.65
43745;BME280;29359;53.048;8.732;2023-03-14T05:22:17;98768.56;;;9.99;89.37
43745;BME280;29359;53.048;8.732;2023-03-14T05:24:19;98764.13;;;9.99;89.19
43745;BME280;29359;53.048;8.732;2023-03-14T05:26:20;98759.81;;;9.98;88.51
43745;BME280;29359;53.048;8.732;2023-03-14T05:28:22;98756.22;;;9.99;88.03
43745;BME280;29359;53.048;8.732;2023-03-14T05:30:23;98751.94;;;9.97;87.40
43745;BME280;29359;53.048;8.732;2023-03-14T05:32:25;98742.28;;;9.97;87.09
43745;BME280;29359;53.048;8.732;2023-03-14T05:34:26;98748.41;;;9.98;87.10
43745;BME280;29359;53.048;8.732;2023-03-14T05:36:28;98744.13;;;9.95;86.59
43745;BME280;29359;53.048;8.732;2023-03-14T05:38:29;98741.78;;;9.91;87.12
43745;BME280;29359;53.048;8.732;2023-03-14T05:40:31;98749.84;;;9.88;87.37
43745;BME280;29359;53.048;8.732;2023-03-14T05:42:32;98738.66;;;9.84;87.23
43745;BME280;29359;53.048;8.732;2023-03-14T05:44:34;98739.69;;;9.82;87.29
43745;BME280;29359;53.048;8.732;2023-03-14T05:46:35;98737.22;;;9.79;87.23
43745;BME280;29359;53.048;8.732;2023-03-14T05:48:37;98738.25;;;9.76;87.93
43745;BME280;29359;53.048;8.732;2023-03-14T05:50:38;98729.69;;;9.72;88.07
43745;BME280;29359;53.048;8.732;2023-03-14T05:52:40;98744.53;;;9.73;87.61
43745;BME280;29359;53.048;8.732;2023-03-14T05:54:41;98738.44;;;9.73;87.65
43745;BME280;29359;53.048;8.732;2023-03-14T05:56:43;98741.16;;;9.71;88.11
43745;BME280;29359;53.048;8.732;2023-03-14T05:58:44;98740.31;;;9.71;87.86
43745;BME280;29359;53.048;8.732;2023-03-14T06:00:46;98748.97;;;9.73;88.14
43745;BME280;29359;53.048;8.732;2023-03-14T06:02:48;98751.50;;;9.74;87.77
43745;BME280;29359;53.048;8.732;2023-03-14T06:04:49;98754.06;;;9.76;88.06
43745;BME280;29359;53.048;8.732;2023-03-14T06:06:51;98751.34;;;9.77;87.02
43745;BME280;29359;53.048;8.732;2023-03-14T06:08:52;98750.31;;;9.80;86.95
43745;BME280;29359;53.048;8.732;2023-03-14T06:10:54;98750.97;;;9.84;85.85
43745;BME280;29359;53.048;8.732;2023-03-14T06:12:55;98749.19;;;9.84;85.80
43745;BME280;29359;53.048;8.732;2023-03-14T06:14:57;98753.44;;;9.87;85.43
43745;BME280;29359;53.048;8.732;2023-03-14T06:16:58;98754.28;;;9.87;85.68
43745;BME280;29359;53.048;8.732;2023-03-14T06:19:02;98749.84;;;9.88;84.98
43745;BME280;29359;53.048;8.732;2023-03-14T06:21:04;98745.34;;;9.90;85.37
43745;BME280;29359;53.048;8.732;2023-03-14T06:23:07;98749.59;;;9.92;85.06
43745;BME280;29359;53.048;8.732;2023-03-14T06:25:08;98752.97;;;9.94;85.55
43745;BME280;29359;53.048;8.732;2023-03-14T06:27:10;98752.13;;;9.94;85.35
43745;BME280;29359;53.048;8.732;2023-03-14T06:29:12;98757.31;;;9.95;85.29
43745;BME280;29359;53.048;8.732;2023-03-14T06:31:14;98760.78;;;9.96;85.77
43745;BME280;29359;53.048;8.732;2023-03-14T06:33:16;98762.50;;;9.97;85.98
43745;BME280;29359;53.048;8.732;2023-03-14T06:35:17;98756.38;;;9.96;85.91
43745;BME280;29359;53.048;8.732;2023-03-14T06:37:19;98754.69;;;9.95;86.65
43745;BME280;29359;53.048;8.732;2023-03-14T06:39:21;98754.75;;;9.94;86.14
43745;BME280;29359;53.048;8.732;2023-03-14T06:41:23;98760.97;;;9.93;86.14
43745;BME280;29359;53.048;8.732;2023-03-14T06:43:27;98758.44;;;9.91;86.33
43745;BME280;29359;53.048;8.732;2023-03-14T06:45:28;98758.44;;;9.91;86.24
43745;BME280;29359;53.048;8.732;2023-03-14T06:47:30;98762.75;;;9.92;86.89
43745;BME280;29359;53.048;8.732;2023-03-14T06:49:31;98762.66;;;9.94;86.52
43745;BME280;29359;53.048;8.732;2023-03-14T06:51:33;98754.69;;;9.95;87.21
43745;BME280;29359;53.048;8.732;2023-03-14T06:53:35;98756.56;;;9.93;87.18
43745;BME280;29359;53.048;8.732;2023-03-14T06:55:36;98766.25;;;9.93;87.48
43745;BME280;29359;53.048;8.732;2023-03-14T06:57:38;98765.31;;;9.94;88.26
43745;BME280;29359;53.048;8.732;2023-03-14T06:59:39;98766.16;;;9.94;88.25
43745;BME280;29359;53.048;8.732;2023-03-14T07:01:41;98764.47;;;9.93;88.60
43745;BME280;29359;53.048;8.732;2023-03-14T07:03:42;98762.66;;;9.94;88.57
43745;BME280;29359;53.048;8.732;2023-03-14T07:05:44;98761.81;;;9.93;88.98
43745;BME280;29359;53.048;8.732;2023-03-14T07:07:45;98760.78;;;9.96;88.80
43745;BME280;29359;53.048;8.732;2023-03-14T07:09:46;98764.22;;;9.98;89.03
43745;BME280;29359;53.048;8.732;2023-03-14T07:11:48;98771.94;;;10.01;88.96
43745;BME280;29359;53.048;8.732;2023-03-14T07:13:50;98767.63;;;10.00;89.25
43745;BME280;29359;53.048;8.732;2023-03-14T07:15:51;98769.22;;;10.02;89.43
43745;BME280;29359;53.048;8.732;2023-03-14T07:17:52;98766.41;;;10.05;89.26
43745;BME280;29359;53.048;8.732;2023-03-14T07:19:54;98761.88;;;10.07;89.73
43745;BME280;29359;53.048;8.732;2023-03-14T07:21:55;98763.41;;;10.12;89.40
43745;BME280;29359;53.048;8.732;2023-03-14T07:23:58;98768.41;;;10.16;89.13
43745;BME280;29359;53.048;8.732;2023-03-14T07:25:59;98763.13;;;10.16;88.44
43745;BME280;29359;53.048;8.732;2023-03-14T07:28:01;98772.72;;;10.17;88.29
43745;BME280;29359;53.048;8.732;2023-03-14T07:30:03;98769.16;;;10.18;88.86
43745;BME280;29359;53.048;8.732;2023-03-14T07:32:04;98767.88;;;10.25;88.36
43745;BME280;29359;53.048;8.732;2023-03-14T07:34:06;98763.00;;;10.33;88.42
43745;BME280;29359;53.048;8.732;2023-03-14T07:36:08;98767.75;;;10.43;88.10
43745;BME280;29359;53.048;8.732;2023-03-14T07:38:09;98770.00;;;10.49;87.45
43745;BME280;29359;53.048;8.732;2023-03-14T07:40:11;98778.47;;;10.54;87.46
43745;BME280;29359;53.048;8.732;2023-03-14T07:42:16;98783.38;;;10.60;87.01
43745;BME280;29359;53.048;8.732;2023-03-14T07:44:17;98773.41;;;10.65;86.44
43745;BME280;29359;53.048;8.732;2023-03-14T07:46:19;98774.72;;;10.72;86.04
43745;BME280;29359;53.048;8.732;2023-03-14T07:48:21;98781.41;;;10.78;85.98
43745;BME280;29359;53.048;8.732;2023-03-14T07:50:24;98775.09;;;10.80;85.15
43745;BME280;29359;53.048;8.732;2023-03-14T07:52:25;98776.69;;;10.83;84.95
43745;BME280;29359;53.048;8.732;2023-03-14T07:54:27;98779.16;;;10.86;84.45
43745;BME280;29359;53.048;8.732;2023-03-14T07:56:28;98782.66;;;10.86;84.51
43745;BME280;29359;53.048;8.732;2023-03-14T07:58:30;98779.16;;;10.86;84.18
43745;BME280;29359;53.048;8.732;2023-03-14T08:00:32;98787.84;;;10.88;84.02
43745;BME280;29359;53.048;8.732;2023-03-14T08:02:34;98793.13;;;10.88;83.95
43745;BME280;29359;53.048;8.732;2023-03-14T08:04:38;98787.94;;;10.86;83.83
43745;BME280;29359;53.048;8.732;2023-03-14T08:06:40;98795.09;;;10.84;83.88
43745;BME280;29359;53.048;8.732;2023-03-14T08:08:42;98785.38;;;10.85;84.08
43745;BME280;29359;53.048;8.732;2023-03-14T08:10:43;98783.75;;;10.82;83.52
43745;BME280;29359;53.048;8.732;2023-03-14T08:12:45;98779.25;;;10.84;83.66
43745;BME280;29359;53.048;8.732;2023-03-14T08:14:46;98781.03;;;10.84;83.98
43745;BME280;29359;53.048;8.732;2023-03-14T08:16:47;98777.47;;;10.85;84.29
43745;BME280;29359;53.048;8.732;2023-03-14T08:18:49;98789.53;;;10.89;82.99
43745;BME280;29359;53.048;8.732;2023-03-14T08:20:50;98780.97;;;10.85;82.80
43745;BME280;29359;53.048;8.732;2023-03-14T08:22:52;98779.16;;;10.86;82.87
43745;BME280;29359;53.048;8.732;2023-03-14T08:24:53;98781.03;;;10.84;83.22
43745;BME280;29359;53.048;8.732;2023-03-14T08:26:55;98782.66;;;10.86;83.16
43745;BME280;29359;53.048;8.732;2023-03-14T08:28:56;98787.75;;;10.89;82.93
43745;BME280;29359;53.048;8.732;2023-03-14T08:30:59;98785.94;;;10.90;82.25
43745;BME280;29359;53.048;8.732;2023-03-14T08:33:00;98787.84;;;10.88;82.42
43745;BME280;29359;53.048;8.732;2023-03-14T08:35:02;98802.81;;;10.87;82.61
43745;BME280;29359;53.048;8.732;2023-03-14T08:37:05;98795.84;;;10.86;82.93
43745;BME280;29359;53.048;8.732;2023-03-14T08:39:20;98795.00;;;10.86;83.88
43745;BME280;29359;53.048;8.732;2023-03-14T08:41:23;98793.22;;;10.86;84.13
43745;BME280;29359;53.048;8.732;2023-03-14T08:43:25;98796.41;;;10.77;84.67
43745;BME280;29359;53.048;8.732;2023-03-14T08:45:27;98796.19;;;10.66;84.76
43745;BME280;29359;53.048;8.732;2023-03-14T08:47:28;98802.72;;;10.60;85.62
43745;BME280;29359;53.048;8.732;2023-03-14T08:49:30;98801.19;;;10.56;86.01
43745;BME280;29359;53.048;8.732;2023-03-14T08:51:31;98797.81;;;10.54;86.06
43745;BME280;29359;53.048;8.732;2023-03-14T08:53:33;98806.75;;;10.52;86.55
43745;BME280;29359;53.048;8.732;2023-03-14T08:55:35;98812.78;;;10.54;87.08
43745;BME280;29359;53.048;8.732;2023-03-14T08:57:36;98804.88;;;10.54;86.97
43745;BME280;29359;53.048;8.732;2023-03-14T08:59:38;98805.81;;;10.53;86.86
43745;BME280;29359;53.048;8.732;2023-03-14T09:01:39;98812.22;;;10.49;87.32
43745;BME280;29359;53.048;8.732;2023-03-14T09:03:41;98820.97;;;10.49;87.76
43745;BME280;29359;53.048;8.732;2023-03-14T09:05:43;98824.56;;;10.48;88.04
43745;BME280;29359;53.048;8.732;2023-03-14T09:07:44;98825.69;;;10.44;88.42
43745;BME280;29359;53.048;8.732;2023-03-14T09:09:46;98832.13;;;10.38;88.75
43745;BME280;29359;53.048;8.732;2023-03-14T09:11:47;98899.28;;;10.33;89.87
43745;BME280;29359;53.048;8.732;2023-03-14T09:13:48;98923.47;;;9.94;87.08
43745;BME280;29359;53.048;8.732;2023-03-14T09:15:54;98931.53;;;9.10;84.12
43745;BME280;29359;53.048;8.732;2023-03-14T09:17:56;98931.06;;;8.85;92.03
43745;BME280;29359;53.048;8.732;2023-03-14T09:19:58;98954.34;;;8.22;90.70
43745;BME280;29359;53.048;8.732;2023-03-14T09:22:01;98974.91;;;7.57;91.07
43745;BME280;29359;53.048;8.732;2023-03-14T09:24:02;98973.47;;;7.11;91.71
43745;BME280;29359;53.048;8.732;2023-03-14T09:26:04;98982.94;;;6.95;94.09
43745;BME280;29359;53.048;8.732;2023-03-14T09:28:05;98991.63;;;6.75;95.14
43745;BME280;29359;53.048;8.732;2023-03-14T09:30:07;98995.69;;;6.62;96.23
43745;BME280;29359;53.048;8.732;2023-03-14T09:32:09;99011.69;;;6.56;97.46
43745;BME280;29359;53.048;8.732;2023-03-14T09:34:11;99018.88;;;6.51;98.55
43745;BME280;29359;53.048;8.732;2023-03-14T09:36:12;99026.22;;;6.41;99.23
43745;BME280;29359;53.048;8.732;2023-03-14T09:38:14;99035.78;;;6.42;100.00
43745;BME280;29359;53.048;8.732;2023-03-14T09:40:17;99040.31;;;6.17;99.14
43745;BME280;29359;53.048;8.732;2023-03-14T09:42:25;99051.66;;;6.17;100.00
43745;BME280;29359;53.048;8.732;2023-03-14T09:44:33;99062.75;;;6.01;99.93
43745;BME280;29359;53.048;8.732;2023-03-14T09:46:38;99062.81;;;5.99;100.00
43745;BME280;29359;53.048;8.732;2023-03-14T09:48:40;99085.03;;;5.87;100.00
43745;BME280;29359;53.048;8.732;2023-03-14T09:50:49;99097.78;;;5.98;100.00
43745;BME280;29359;53.048;8.732;2023-03-14T09:52:56;99096.84;;;5.99;100.00
43745;BME280;29359;53.048;8.732;2023-03-14T09:55:18;99116.53;;;5.61;100.00
43745;BME280;29359;53.048;8.732;2023-03-14T09:57:23;99119.69;;;5.21;100.00
43745;BME280;29359;53.048;8.732;2023-03-14T09:59:27;99146.34;;;5.05;100.00
43745;BME280;29359;53.048;8.732;2023-03-14T10:01:32;99150.91;;;4.99;100.00
43745;BME280;29359;53.048;8.732;2023-03-14T10:03:35;99154.28;;;4.74;100.00
43745;BME280;29359;53.048;8.732;2023-03-14T10:05:36;99176.91;;;4.76;100.00
43745;BME280;29359;53.048;8.732;2023-03-14T10:07:38;99186.19;;;4.58;100.00
43745;BME280;29359;53.048;8.732;2023-03-14T10:09:39;99185.41;;;4.54;100.00
43745;BME280;29359;53.048;8.732;2023-03-14T10:11:41;99193.97;;;4.59;100.00
43745;BME280;29359;53.048;8.732;2023-03-14T10:17:59;99228.38;;;4.46;100.00
43745;BME280;29359;53.048;8.732;2023-03-14T10:20:01;99229.00;;;4.54;100.00
43745;BME280;29359;53.048;8.732;2023-03-14T10:22:10;99237.66;;;4.56;100.00
43745;BME280;29359;53.048;8.732;2023-03-14T10:26:27;99268.19;;;4.54;100.00
43745;BME280;29359;53.048;8.732;2023-03-14T10:28:51;99270.81;;;4.54;100.00
43745;BME280;29359;53.048;8.732;2023-03-14T10:30:54;99272.28;;;4.62;100.00
43745;BME280;29359;53.048;8.732;2023-03-14T10:32:56;99285.22;;;4.67;100.00
43745;BME280;29359;53.048;8.732;2023-03-14T10:37:21;99307.94;;;4.65;100.00
43745;BME280;29359;53.048;8.732;2023-03-14T10:39:27;99315.00;;;4.61;100.00
43745;BME280;29359;53.048;8.732;2023-03-14T10:41:31;99329.06;;;4.57;100.00
43745;BME280;29359;53.048;8.732;2023-03-14T10:43:35;99330.91;;;4.54;100.00
43745;BME280;29359;53.048;8.732;2023-03-14T10:45:39;99340.47;;;4.55;100.00
43745;BME280;29359;53.048;8.732;2023-03-14T10:47:49;99322.03;;;4.59;100.00
43745;BME280;29359;53.048;8.732;2023-03-14T10:49:50;99343.97;;;4.54;100.00
43745;BME280;29359;53.048;8.732;2023-03-14T10:51:52;99339.59;;;4.54;100.00
43745;BME280;29359;53.048;8.732;2023-03-14T10:54:02;99356.53;;;4.72;100.00
43745;BME280;29359;53.048;8.732;2023-03-14T10:56:16;99348.94;;;4.63;100.00
43745;BME280;29359;53.048;8.732;2023-03-14T10:58:22;99355.69;;;4.71;100.00
43745;BME280;29359;53.048;8.732;2023-03-14T11:00:24;99361.34;;;4.87;100.00
43745;BME280;29359;53.048;8.732;2023-03-14T11:02:53;99358.50;;;4.95;100.00
43745;BME280;29359;53.048;8.732;2023-03-14T11:07:33;99355.72;;;5.01;100.00
43745;BME280;29359;53.048;8.732;2023-03-14T11:09:56;99372.50;;;4.94;100.00
43745;BME280;29359;53.048;8.732;2023-03-14T11:14:36;99400.78;;;4.80;100.00
43745;BME280;29359;53.048;8.732;2023-03-14T11:21:13;99416.69;;;5.03;100.00
43745;BME280;29359;53.048;8.732;2023-03-14T11:23:27;99420.03;;;5.08;100.00
43745;BME280;29359;53.048;8.732;2023-03-14T11:30:12;99419.22;;;5.06;100.00
43745;BME280;29359;53.048;8.732;2023-03-14T11:32:36;99437.13;;;5.20;100.00
43745;BME280;29359;53.048;8.732;2023-03-14T11:34:50;99448.16;;;5.31;100.00
43745;BME280;29359;53.048;8.732;2023-03-14T11:39:08;99455.50;;;5.48;100.00
43745;BME280;29359;53.048;8.732;2023-03-14T11:41:34;99457.75;;;5.60;100.00
43745;BME280;29359;53.048;8.732;2023-03-14T11:43:41;99468.41;;;5.54;100.00
43745;BME280;29359;53.048;8.732;2023-03-14T11:45:44;99472.03;;;5.50;100.00